Schelenburg God Heliport

EKSG · 南丹麦大区, 丹麦

使用的METAR站距离机场75 km。
罗盘
风向 的 风向 的 风向 到 风向 230° 直升机
风: 4 kt, 2 beaufort
0 ft 1.000 2.000 3.000 4.000 5.000
未检测到零云
METAR EKRS 281820Z AUTO 23004KT 180V280 9999 NCD 14/14 Q1015

METAR Schelenburg God Heliport - EKSG

Schelenburg God Heliport是,丹麦中的直升机场。 该机场位于纬度55,54389和经度10,63583。 本场的ICAO机场代码为EKSG。 机场在Kobenhavn FIR中。

该航空气象观测是针对Ringsted Airfield在2024年5月28日 20:20, 当地时间进行的。

机场观察

风向为230°,速度为4 kt。 风向在180°和280°之间变化。

可见度为10 km 或者更多。

有未检测到零云。 没有观察到天花板。

温度和风寒是14 °C。 露点为14 °C,相对湿度为100%。 海平面上的气压为1015 hPa (QNH)。

白天

今天,太阳从04:46升起,在21:43降落。 这适用于Schelenburg God Heliport,世界夏令时可能有所不同。 当地时间与世界标准时间之间的时差为+2 小时。 夏令时目前正在进行中。

公司介绍

我们没有关于这个机场的公司信息。

体会

到Vliegles.nl去找飞行课程,跳伞和其他飞行体验。 浏览页面,了解Schelenburg God Heliport附近所有可用的活动。 你也可以使用搜索功能来寻找你所在地附近的特定飞行课程、跳伞或其他飞行体验。

乌云

- NCD 未检测到零云

温度 & 天气

温度 14 °C
露点 14 °C
相对湿度 100%
Kp-index 0 (0-9)

白天

日出
04:42
中午
13:10
日落
21:38 (37m)

小工具

你想在你的网站上有一个关于Schelenburg God Heliport的当前航空天气(METAR)的小部件吗?

显示HTML代码
报告变更